sensor_id;sensor_type;location;lat;lon;timestamp;P1;durP1;ratioP1;P2;durP2;ratioP2
49934;SDS011;39898;41.762;26.200;2024-01-11T00:01:34;33.30;;;14.20;;
49934;SDS011;39898;41.762;26.200;2024-01-11T00:04:00;25.75;;;12.15;;
49934;SDS011;39898;41.762;26.200;2024-01-11T00:06:27;31.48;;;13.55;;
49934;SDS011;39898;41.762;26.200;2024-01-11T00:08:53;31.63;;;13.57;;
49934;SDS011;39898;41.762;26.200;2024-01-11T00:11:20;27.30;;;12.82;;
49934;SDS011;39898;41.762;26.200;2024-01-11T00:13:47;26.60;;;11.38;;
49934;SDS011;39898;41.762;26.200;2024-01-11T00:16:13;26.30;;;9.25;;
49934;SDS011;39898;41.762;26.200;2024-01-11T00:18:40;26.45;;;10.88;;
49934;SDS011;39898;41.762;26.200;2024-01-11T00:21:07;23.55;;;11.00;;
49934;SDS011;39898;41.762;26.200;2024-01-11T00:23:34;23.67;;;9.00;;
49934;SDS011;39898;41.762;26.200;2024-01-11T00:26:00;23.63;;;8.38;;
49934;SDS011;39898;41.762;26.200;2024-01-11T00:28:27;37.88;;;12.90;;
49934;SDS011;39898;41.762;26.200;2024-01-11T00:30:54;25.88;;;10.40;;
49934;SDS011;39898;41.762;26.200;2024-01-11T00:33:20;29.02;;;12.70;;
49934;SDS011;39898;41.762;26.200;2024-01-11T00:35:47;28.27;;;13.70;;
49934;SDS011;39898;41.762;26.200;2024-01-11T00:38:14;33.63;;;13.53;;
49934;SDS011;39898;41.762;26.200;2024-01-11T00:40:41;45.15;;;16.63;;
49934;SDS011;39898;41.762;26.200;2024-01-11T00:43:07;41.67;;;15.18;;
49934;SDS011;39898;41.762;26.200;2024-01-11T00:45:34;35.95;;;14.98;;
49934;SDS011;39898;41.762;26.200;2024-01-11T00:48:01;44.28;;;15.95;;
49934;SDS011;39898;41.762;26.200;2024-01-11T00:50:29;36.58;;;14.88;;
49934;SDS011;39898;41.762;26.200;2024-01-11T00:52:56;41.38;;;16.17;;
49934;SDS011;39898;41.762;26.200;2024-01-11T00:55:22;25.23;;;11.73;;
49934;SDS011;39898;41.762;26.200;2024-01-11T00:57:50;39.83;;;14.90;;
49934;SDS011;39898;41.762;26.200;2024-01-11T01:00:17;34.65;;;14.00;;
49934;SDS011;39898;41.762;26.200;2024-01-11T01:02:44;34.90;;;12.80;;
49934;SDS011;39898;41.762;26.200;2024-01-11T01:05:10;29.10;;;13.45;;
49934;SDS011;39898;41.762;26.200;2024-01-11T01:07:37;29.08;;;14.15;;
49934;SDS011;39898;41.762;26.200;2024-01-11T01:10:04;32.40;;;14.00;;
49934;SDS011;39898;41.762;26.200;2024-01-11T01:12:30;35.28;;;14.98;;
49934;SDS011;39898;41.762;26.200;2024-01-11T01:14:57;34.35;;;14.30;;
49934;SDS011;39898;41.762;26.200;2024-01-11T01:17:24;39.15;;;15.50;;
49934;SDS011;39898;41.762;26.200;2024-01-11T01:19:50;38.08;;;14.40;;
49934;SDS011;39898;41.762;26.200;2024-01-11T01:22:17;30.23;;;13.52;;
49934;SDS011;39898;41.762;26.200;2024-01-11T01:24:43;30.35;;;12.18;;
49934;SDS011;39898;41.762;26.200;2024-01-11T01:27:10;41.03;;;16.10;;
49934;SDS011;39898;41.762;26.200;2024-01-11T01:29:37;60.90;;;18.30;;
49934;SDS011;39898;41.762;26.200;2024-01-11T01:32:04;45.67;;;16.63;;
49934;SDS011;39898;41.762;26.200;2024-01-11T01:34:30;39.03;;;16.73;;
49934;SDS011;39898;41.762;26.200;2024-01-11T01:36:57;45.08;;;17.65;;
49934;SDS011;39898;41.762;26.200;2024-01-11T01:39:24;39.55;;;16.30;;
49934;SDS011;39898;41.762;26.200;2024-01-11T01:41:50;43.47;;;18.50;;
49934;SDS011;39898;41.762;26.200;2024-01-11T01:44:17;56.80;;;21.10;;
49934;SDS011;39898;41.762;26.200;2024-01-11T01:46:44;47.93;;;20.00;;
49934;SDS011;39898;41.762;26.200;2024-01-11T01:49:11;44.22;;;19.13;;
49934;SDS011;39898;41.762;26.200;2024-01-11T01:51:38;44.90;;;20.63;;
49934;SDS011;39898;41.762;26.200;2024-01-11T01:54:05;47.10;;;20.08;;
49934;SDS011;39898;41.762;26.200;2024-01-11T01:56:31;48.80;;;18.70;;
49934;SDS011;39898;41.762;26.200;2024-01-11T01:58:59;43.87;;;18.83;;
49934;SDS011;39898;41.762;26.200;2024-01-11T02:01:26;42.05;;;17.00;;
49934;SDS011;39898;41.762;26.200;2024-01-11T02:03:54;30.52;;;14.88;;
49934;SDS011;39898;41.762;26.200;2024-01-11T02:06:25;37.45;;;14.88;;
49934;SDS011;39898;41.762;26.200;2024-01-11T02:08:52;36.60;;;15.10;;
49934;SDS011;39898;41.762;26.200;2024-01-11T02:11:22;30.83;;;14.07;;
49934;SDS011;39898;41.762;26.200;2024-01-11T02:13:50;37.50;;;16.70;;
49934;SDS011;39898;41.762;26.200;2024-01-11T02:16:16;32.20;;;16.98;;
49934;SDS011;39898;41.762;26.200;2024-01-11T02:18:43;39.53;;;16.75;;
49934;SDS011;39898;41.762;26.200;2024-01-11T02:21:11;44.37;;;18.40;;
49934;SDS011;39898;41.762;26.200;2024-01-11T02:23:42;48.67;;;18.05;;
49934;SDS011;39898;41.762;26.200;2024-01-11T02:26:15;60.00;;;22.63;;
49934;SDS011;39898;41.762;26.200;2024-01-11T02:28:45;53.88;;;21.83;;
49934;SDS011;39898;41.762;26.200;2024-01-11T02:31:14;49.83;;;22.85;;
49934;SDS011;39898;41.762;26.200;2024-01-11T02:33:41;59.33;;;22.55;;
49934;SDS011;39898;41.762;26.200;2024-01-11T02:36:08;56.33;;;22.48;;
49934;SDS011;39898;41.762;26.200;2024-01-11T02:38:35;57.95;;;22.95;;
49934;SDS011;39898;41.762;26.200;2024-01-11T02:41:02;56.75;;;23.65;;
49934;SDS011;39898;41.762;26.200;2024-01-11T02:43:29;62.17;;;24.00;;
49934;SDS011;39898;41.762;26.200;2024-01-11T02:45:56;54.60;;;22.17;;
49934;SDS011;39898;41.762;26.200;2024-01-11T02:48:28;57.42;;;22.73;;
49934;SDS011;39898;41.762;26.200;2024-01-11T02:50:56;54.60;;;22.65;;
49934;SDS011;39898;41.762;26.200;2024-01-11T02:53:23;66.47;;;24.63;;
49934;SDS011;39898;41.762;26.200;2024-01-11T02:55:50;63.33;;;24.93;;
49934;SDS011;39898;41.762;26.200;2024-01-11T02:58:17;66.90;;;29.52;;
49934;SDS011;39898;41.762;26.200;2024-01-11T03:00:43;58.17;;;26.48;;
49934;SDS011;39898;41.762;26.200;2024-01-11T03:03:10;77.65;;;26.92;;
49934;SDS011;39898;41.762;26.200;2024-01-11T03:05:37;164.82;;;46.40;;
49934;SDS011;39898;41.762;26.200;2024-01-11T03:08:04;99.28;;;31.80;;
49934;SDS011;39898;41.762;26.200;2024-01-11T03:10:31;51.35;;;24.25;;
49934;SDS011;39898;41.762;26.200;2024-01-11T03:12:57;58.17;;;21.65;;
49934;SDS011;39898;41.762;26.200;2024-01-11T03:15:24;70.95;;;24.33;;
49934;SDS011;39898;41.762;26.200;2024-01-11T03:17:51;60.15;;;25.13;;
49934;SDS011;39898;41.762;26.200;2024-01-11T03:20:17;59.73;;;24.00;;
49934;SDS011;39898;41.762;26.200;2024-01-11T03:22:48;61.95;;;25.52;;
49934;SDS011;39898;41.762;26.200;2024-01-11T03:25:14;67.88;;;26.80;;
49934;SDS011;39898;41.762;26.200;2024-01-11T03:27:42;67.50;;;26.15;;
49934;SDS011;39898;41.762;26.200;2024-01-11T03:30:08;63.03;;;26.98;;
49934;SDS011;39898;41.762;26.200;2024-01-11T03:32:35;57.70;;;24.77;;
49934;SDS011;39898;41.762;26.200;2024-01-11T03:35:02;69.33;;;27.60;;
49934;SDS011;39898;41.762;26.200;2024-01-11T03:37:28;60.72;;;24.25;;
49934;SDS011;39898;41.762;26.200;2024-01-11T03:39:55;74.82;;;26.92;;
49934;SDS011;39898;41.762;26.200;2024-01-11T03:42:21;91.07;;;35.67;;
49934;SDS011;39898;41.762;26.200;2024-01-11T03:44:48;77.53;;;28.85;;
49934;SDS011;39898;41.762;26.200;2024-01-11T03:47:15;55.43;;;23.67;;
49934;SDS011;39898;41.762;26.200;2024-01-11T03:49:42;63.50;;;25.60;;
49934;SDS011;39898;41.762;26.200;2024-01-11T03:52:08;68.63;;;26.75;;
49934;SDS011;39898;41.762;26.200;2024-01-11T03:54:35;67.18;;;28.90;;
49934;SDS011;39898;41.762;26.200;2024-01-11T03:57:02;78.30;;;30.50;;
49934;SDS011;39898;41.762;26.200;2024-01-11T03:59:29;79.10;;;31.27;;
49934;SDS011;39898;41.762;26.200;2024-01-11T04:01:55;78.60;;;29.40;;
49934;SDS011;39898;41.762;26.200;2024-01-11T04:04:22;73.30;;;30.57;;
49934;SDS011;39898;41.762;26.200;2024-01-11T04:06:49;72.22;;;28.23;;
49934;SDS011;39898;41.762;26.200;2024-01-11T04:09:16;75.70;;;26.77;;
49934;SDS011;39898;41.762;26.200;2024-01-11T04:11:42;59.78;;;25.75;;
49934;SDS011;39898;41.762;26.200;2024-01-11T04:14:09;36.65;;;12.93;;
49934;SDS011;39898;41.762;26.200;2024-01-11T04:16:39;76.65;;;28.20;;
49934;SDS011;39898;41.762;26.200;2024-01-11T04:19:06;72.15;;;27.50;;
49934;SDS011;39898;41.762;26.200;2024-01-11T04:21:33;58.00;;;24.38;;
49934;SDS011;39898;41.762;26.200;2024-01-11T04:23:59;73.28;;;28.20;;
49934;SDS011;39898;41.762;26.200;2024-01-11T04:26:26;65.80;;;24.30;;
49934;SDS011;39898;41.762;26.200;2024-01-11T04:28:53;63.03;;;23.17;;
49934;SDS011;39898;41.762;26.200;2024-01-11T04:31:23;127.85;;;41.55;;
49934;SDS011;39898;41.762;26.200;2024-01-11T04:33:50;221.83;;;56.23;;
49934;SDS011;39898;41.762;26.200;2024-01-11T04:36:17;57.43;;;22.83;;
49934;SDS011;39898;41.762;26.200;2024-01-11T04:38:44;60.20;;;21.77;;
49934;SDS011;39898;41.762;26.200;2024-01-11T04:41:13;61.17;;;24.65;;
49934;SDS011;39898;41.762;26.200;2024-01-11T04:43:41;52.38;;;23.60;;
49934;SDS011;39898;41.762;26.200;2024-01-11T04:46:17;68.43;;;25.30;;
49934;SDS011;39898;41.762;26.200;2024-01-11T04:48:44;59.28;;;24.15;;
49934;SDS011;39898;41.762;26.200;2024-01-11T04:51:12;60.22;;;23.42;;
49934;SDS011;39898;41.762;26.200;2024-01-11T04:53:39;60.00;;;25.63;;
49934;SDS011;39898;41.762;26.200;2024-01-11T04:56:06;59.25;;;25.13;;
49934;SDS011;39898;41.762;26.200;2024-01-11T04:58:34;71.72;;;28.98;;
49934;SDS011;39898;41.762;26.200;2024-01-11T05:01:00;71.95;;;26.73;;
49934;SDS011;39898;41.762;26.200;2024-01-11T05:03:27;62.53;;;26.33;;
49934;SDS011;39898;41.762;26.200;2024-01-11T05:05:54;69.40;;;26.88;;
49934;SDS011;39898;41.762;26.200;2024-01-11T05:08:21;70.07;;;26.50;;
49934;SDS011;39898;41.762;26.200;2024-01-11T05:10:47;66.65;;;26.65;;
49934;SDS011;39898;41.762;26.200;2024-01-11T05:13:14;62.35;;;24.25;;
49934;SDS011;39898;41.762;26.200;2024-01-11T05:15:40;66.88;;;26.73;;
49934;SDS011;39898;41.762;26.200;2024-01-11T05:18:07;86.60;;;31.17;;
49934;SDS011;39898;41.762;26.200;2024-01-11T05:20:34;61.85;;;28.33;;
49934;SDS011;39898;41.762;26.200;2024-01-11T05:23:01;79.75;;;28.73;;
49934;SDS011;39898;41.762;26.200;2024-01-11T05:25:27;70.43;;;26.85;;
49934;SDS011;39898;41.762;26.200;2024-01-11T05:27:54;65.97;;;26.15;;
49934;SDS011;39898;41.762;26.200;2024-01-11T05:30:20;75.43;;;30.98;;
49934;SDS011;39898;41.762;26.200;2024-01-11T05:32:47;64.90;;;27.40;;
49934;SDS011;39898;41.762;26.200;2024-01-11T05:35:14;70.22;;;29.63;;
49934;SDS011;39898;41.762;26.200;2024-01-11T05:37:41;80.82;;;33.03;;
49934;SDS011;39898;41.762;26.200;2024-01-11T05:40:07;81.50;;;32.83;;
49934;SDS011;39898;41.762;26.200;2024-01-11T05:42:34;89.30;;;35.05;;
49934;SDS011;39898;41.762;26.200;2024-01-11T05:45:01;85.77;;;30.17;;
49934;SDS011;39898;41.762;26.200;2024-01-11T05:47:27;76.68;;;29.95;;
49934;SDS011;39898;41.762;26.200;2024-01-11T05:49:54;77.27;;;31.47;;
49934;SDS011;39898;41.762;26.200;2024-01-11T05:52:21;86.53;;;31.30;;
49934;SDS011;39898;41.762;26.200;2024-01-11T05:54:47;80.82;;;31.50;;
49934;SDS011;39898;41.762;26.200;2024-01-11T05:57:14;57.53;;;22.07;;
49934;SDS011;39898;41.762;26.200;2024-01-11T05:59:44;94.32;;;33.05;;
49934;SDS011;39898;41.762;26.200;2024-01-11T06:02:11;84.38;;;32.22;;
49934;SDS011;39898;41.762;26.200;2024-01-11T06:04:38;97.35;;;36.00;;
49934;SDS011;39898;41.762;26.200;2024-01-11T06:07:05;79.63;;;30.53;;
49934;SDS011;39898;41.762;26.200;2024-01-11T06:09:31;88.43;;;32.55;;
49934;SDS011;39898;41.762;26.200;2024-01-11T06:11:58;89.45;;;30.20;;
49934;SDS011;39898;41.762;26.200;2024-01-11T06:14:25;80.95;;;32.15;;
49934;SDS011;39898;41.762;26.200;2024-01-11T06:16:52;99.22;;;32.75;;
49934;SDS011;39898;41.762;26.200;2024-01-11T06:19:19;77.28;;;30.48;;
49934;SDS011;39898;41.762;26.200;2024-01-11T06:21:46;84.15;;;31.60;;
49934;SDS011;39898;41.762;26.200;2024-01-11T06:24:13;69.95;;;29.17;;
49934;SDS011;39898;41.762;26.200;2024-01-11T06:26:40;77.20;;;28.10;;
49934;SDS011;39898;41.762;26.200;2024-01-11T06:29:06;71.15;;;25.92;;
49934;SDS011;39898;41.762;26.200;2024-01-11T06:31:33;68.28;;;28.45;;
49934;SDS011;39898;41.762;26.200;2024-01-11T06:34:00;71.20;;;29.00;;
49934;SDS011;39898;41.762;26.200;2024-01-11T06:36:26;74.83;;;27.43;;
49934;SDS011;39898;41.762;26.200;2024-01-11T06:38:53;85.47;;;34.28;;
49934;SDS011;39898;41.762;26.200;2024-01-11T06:41:19;78.97;;;30.67;;
49934;SDS011;39898;41.762;26.200;2024-01-11T06:43:46;98.40;;;33.95;;
49934;SDS011;39898;41.762;26.200;2024-01-11T06:46:13;110.95;;;41.95;;
49934;SDS011;39898;41.762;26.200;2024-01-11T06:48:39;118.25;;;41.58;;
49934;SDS011;39898;41.762;26.200;2024-01-11T06:51:06;114.03;;;46.42;;
49934;SDS011;39898;41.762;26.200;2024-01-11T06:53:33;183.77;;;70.05;;
49934;SDS011;39898;41.762;26.200;2024-01-11T06:56:00;123.63;;;44.58;;
49934;SDS011;39898;41.762;26.200;2024-01-11T06:58:26;110.80;;;41.20;;
49934;SDS011;39898;41.762;26.200;2024-01-11T07:00:53;91.18;;;35.83;;
49934;SDS011;39898;41.762;26.200;2024-01-11T07:03:20;84.47;;;34.75;;
49934;SDS011;39898;41.762;26.200;2024-01-11T07:05:46;91.00;;;34.78;;
49934;SDS011;39898;41.762;26.200;2024-01-11T07:08:13;95.38;;;39.40;;
49934;SDS011;39898;41.762;26.200;2024-01-11T07:10:40;92.75;;;36.20;;
49934;SDS011;39898;41.762;26.200;2024-01-11T07:13:07;108.13;;;40.40;;
49934;SDS011;39898;41.762;26.200;2024-01-11T07:15:36;86.97;;;37.00;;
49934;SDS011;39898;41.762;26.200;2024-01-11T07:18:03;89.78;;;33.60;;
49934;SDS011;39898;41.762;26.200;2024-01-11T07:20:30;93.05;;;38.47;;
49934;SDS011;39898;41.762;26.200;2024-01-11T07:22:56;91.10;;;36.30;;
49934;SDS011;39898;41.762;26.200;2024-01-11T07:25:23;99.43;;;35.58;;
49934;SDS011;39898;41.762;26.200;2024-01-11T07:27:49;91.72;;;37.05;;
49934;SDS011;39898;41.762;26.200;2024-01-11T07:30:16;87.57;;;33.00;;
49934;SDS011;39898;41.762;26.200;2024-01-11T07:32:44;94.50;;;40.65;;
49934;SDS011;39898;41.762;26.200;2024-01-11T07:35:11;164.60;;;58.10;;
49934;SDS011;39898;41.762;26.200;2024-01-11T07:37:44;86.10;;;35.38;;
49934;SDS011;39898;41.762;26.200;2024-01-11T07:40:10;79.45;;;32.72;;
49934;SDS011;39898;41.762;26.200;2024-01-11T07:42:37;84.53;;;32.60;;
49934;SDS011;39898;41.762;26.200;2024-01-11T07:45:06;73.22;;;30.17;;
49934;SDS011;39898;41.762;26.200;2024-01-11T07:47:33;76.07;;;30.20;;
49934;SDS011;39898;41.762;26.200;2024-01-11T07:50:00;53.67;;;21.85;;
49934;SDS011;39898;41.762;26.200;2024-01-11T07:52:26;76.00;;;29.70;;
49934;SDS011;39898;41.762;26.200;2024-01-11T07:54:54;76.35;;;32.13;;
49934;SDS011;39898;41.762;26.200;2024-01-11T07:57:20;76.95;;;30.23;;
49934;SDS011;39898;41.762;26.200;2024-01-11T07:59:47;77.78;;;31.55;;
49934;SDS011;39898;41.762;26.200;2024-01-11T08:02:14;80.30;;;30.02;;
49934;SDS011;39898;41.762;26.200;2024-01-11T08:04:42;60.33;;;28.48;;
49934;SDS011;39898;41.762;26.200;2024-01-11T08:07:11;96.63;;;39.83;;
49934;SDS011;39898;41.762;26.200;2024-01-11T08:09:38;79.68;;;32.20;;
49934;SDS011;39898;41.762;26.200;2024-01-11T08:12:11;62.60;;;25.98;;
49934;SDS011;39898;41.762;26.200;2024-01-11T08:14:39;62.88;;;25.67;;
49934;SDS011;39898;41.762;26.200;2024-01-11T08:17:08;58.17;;;23.00;;
49934;SDS011;39898;41.762;26.200;2024-01-11T08:19:35;51.05;;;22.98;;
49934;SDS011;39898;41.762;26.200;2024-01-11T08:22:01;52.75;;;21.75;;
49934;SDS011;39898;41.762;26.200;2024-01-11T08:24:28;47.80;;;21.60;;
49934;SDS011;39898;41.762;26.200;2024-01-11T08:26:55;50.63;;;21.40;;
49934;SDS011;39898;41.762;26.200;2024-01-11T08:29:21;64.88;;;27.40;;
49934;SDS011;39898;41.762;26.200;2024-01-11T08:31:48;68.70;;;31.00;;
49934;SDS011;39898;41.762;26.200;2024-01-11T08:34:15;56.60;;;26.10;;
49934;SDS011;39898;41.762;26.200;2024-01-11T08:36:42;56.35;;;25.67;;
49934;SDS011;39898;41.762;26.200;2024-01-11T08:39:08;61.00;;;24.17;;
49934;SDS011;39898;41.762;26.200;2024-01-11T08:41:37;68.43;;;27.85;;
49934;SDS011;39898;41.762;26.200;2024-01-11T08:44:04;48.72;;;22.92;;
49934;SDS011;39898;41.762;26.200;2024-01-11T08:46:34;102.57;;;43.28;;
49934;SDS011;39898;41.762;26.200;2024-01-11T08:49:01;52.40;;;25.00;;
49934;SDS011;39898;41.762;26.200;2024-01-11T08:51:30;45.95;;;21.25;;
49934;SDS011;39898;41.762;26.200;2024-01-11T08:53:57;47.33;;;18.80;;
49934;SDS011;39898;41.762;26.200;2024-01-11T08:56:23;40.55;;;18.73;;
49934;SDS011;39898;41.762;26.200;2024-01-11T08:58:50;41.85;;;18.05;;
49934;SDS011;39898;41.762;26.200;2024-01-11T09:01:17;44.35;;;17.67;;
49934;SDS011;39898;41.762;26.200;2024-01-11T09:03:44;34.83;;;15.93;;
49934;SDS011;39898;41.762;26.200;2024-01-11T09:06:11;87.95;;;34.72;;
49934;SDS011;39898;41.762;26.200;2024-01-11T09:08:37;36.22;;;16.83;;
49934;SDS011;39898;41.762;26.200;2024-01-11T09:11:04;43.72;;;17.52;;
49934;SDS011;39898;41.762;26.200;2024-01-11T09:13:31;44.47;;;19.10;;
49934;SDS011;39898;41.762;26.200;2024-01-11T09:15:57;41.78;;;17.70;;
49934;SDS011;39898;41.762;26.200;2024-01-11T09:18:24;47.17;;;18.58;;
49934;SDS011;39898;41.762;26.200;2024-01-11T09:20:51;47.85;;;20.30;;
49934;SDS011;39898;41.762;26.200;2024-01-11T09:23:18;68.38;;;27.75;;
49934;SDS011;39898;41.762;26.200;2024-01-11T09:25:45;64.40;;;25.40;;
49934;SDS011;39898;41.762;26.200;2024-01-11T09:28:12;47.72;;;21.33;;
49934;SDS011;39898;41.762;26.200;2024-01-11T09:30:38;62.25;;;22.70;;
49934;SDS011;39898;41.762;26.200;2024-01-11T09:33:05;56.60;;;25.48;;
49934;SDS011;39898;41.762;26.200;2024-01-11T09:35:34;56.42;;;23.58;;
49934;SDS011;39898;41.762;26.200;2024-01-11T09:38:00;48.35;;;21.33;;
49934;SDS011;39898;41.762;26.200;2024-01-11T09:40:27;51.55;;;22.42;;
49934;SDS011;39898;41.762;26.200;2024-01-11T09:42:54;49.38;;;19.73;;
49934;SDS011;39898;41.762;26.200;2024-01-11T09:45:20;65.70;;;23.98;;
49934;SDS011;39898;41.762;26.200;2024-01-11T09:47:47;52.58;;;22.50;;
49934;SDS011;39898;41.762;26.200;2024-01-11T09:50:17;40.72;;;18.02;;
49934;SDS011;39898;41.762;26.200;2024-01-11T09:55:11;49.38;;;20.58;;
49934;SDS011;39898;41.762;26.200;2024-01-11T09:57:37;52.17;;;25.67;;
49934;SDS011;39898;41.762;26.200;2024-01-11T10:02:34;47.45;;;23.10;;
49934;SDS011;39898;41.762;26.200;2024-01-11T10:05:00;44.40;;;21.25;;
49934;SDS011;39898;41.762;26.200;2024-01-11T10:07:27;60.35;;;22.92;;
49934;SDS011;39898;41.762;26.200;2024-01-11T10:09:56;42.17;;;18.60;;
49934;SDS011;39898;41.762;26.200;2024-01-11T10:12:24;31.80;;;14.23;;
49934;SDS011;39898;41.762;26.200;2024-01-11T10:14:52;41.08;;;17.33;;
49934;SDS011;39898;41.762;26.200;2024-01-11T10:17:18;61.75;;;24.02;;
49934;SDS011;39898;41.762;26.200;2024-01-11T10:19:50;33.03;;;15.88;;
49934;SDS011;39898;41.762;26.200;2024-01-11T10:22:19;39.35;;;17.05;;
49934;SDS011;39898;41.762;26.200;2024-01-11T10:24:50;34.00;;;15.23;;
49934;SDS011;39898;41.762;26.200;2024-01-11T10:27:16;38.15;;;15.93;;
49934;SDS011;39898;41.762;26.200;2024-01-11T10:29:43;38.13;;;15.05;;
49934;SDS011;39898;41.762;26.200;2024-01-11T10:32:10;30.67;;;15.13;;
49934;SDS011;39898;41.762;26.200;2024-01-11T10:34:37;37.00;;;15.52;;
49934;SDS011;39898;41.762;26.200;2024-01-11T10:37:06;63.35;;;25.77;;
49934;SDS011;39898;41.762;26.200;2024-01-11T10:39:33;37.25;;;17.00;;
49934;SDS011;39898;41.762;26.200;2024-01-11T10:44:29;35.15;;;15.13;;
49934;SDS011;39898;41.762;26.200;2024-01-11T10:46:59;38.15;;;16.75;;
49934;SDS011;39898;41.762;26.200;2024-01-11T10:49:25;55.67;;;23.85;;
49934;SDS011;39898;41.762;26.200;2024-01-11T10:51:58;106.82;;;34.70;;
49934;SDS011;39898;41.762;26.200;2024-01-11T10:54:26;97.65;;;38.00;;
49934;SDS011;39898;41.762;26.200;2024-01-11T10:56:54;226.75;;;81.97;;
49934;SDS011;39898;41.762;26.200;2024-01-11T10:59:21;124.70;;;46.58;;
49934;SDS011;39898;41.762;26.200;2024-01-11T11:01:54;87.53;;;32.28;;
49934;SDS011;39898;41.762;26.200;2024-01-11T11:04:22;62.13;;;26.20;;
49934;SDS011;39898;41.762;26.200;2024-01-11T11:06:50;75.25;;;28.63;;
49934;SDS011;39898;41.762;26.200;2024-01-11T11:09:17;74.30;;;28.50;;
49934;SDS011;39898;41.762;26.200;2024-01-11T11:11:45;51.43;;;23.10;;
49934;SDS011;39898;41.762;26.200;2024-01-11T11:14:14;47.42;;;22.02;;
49934;SDS011;39898;41.762;26.200;2024-01-11T11:16:41;48.35;;;21.33;;
49934;SDS011;39898;41.762;26.200;2024-01-11T11:19:08;44.25;;;18.25;;
49934;SDS011;39898;41.762;26.200;2024-01-11T11:21:41;52.60;;;21.75;;
49934;SDS011;39898;41.762;26.200;2024-01-11T11:24:08;95.55;;;38.95;;
49934;SDS011;39898;41.762;26.200;2024-01-11T11:26:35;61.25;;;27.10;;
49934;SDS011;39898;41.762;26.200;2024-01-11T11:29:05;53.70;;;23.37;;
49934;SDS011;39898;41.762;26.200;2024-01-11T11:31:36;41.50;;;19.40;;
49934;SDS011;39898;41.762;26.200;2024-01-11T11:34:06;44.10;;;21.05;;
49934;SDS011;39898;41.762;26.200;2024-01-11T11:36:33;37.15;;;17.13;;
49934;SDS011;39898;41.762;26.200;2024-01-11T11:39:01;33.28;;;14.75;;
49934;SDS011;39898;41.762;26.200;2024-01-11T11:41:29;40.10;;;17.85;;
49934;SDS011;39898;41.762;26.200;2024-01-11T11:44:00;35.28;;;15.57;;
49934;SDS011;39898;41.762;26.200;2024-01-11T11:46:27;31.17;;;14.45;;
49934;SDS011;39898;41.762;26.200;2024-01-11T11:48:53;45.33;;;23.40;;
49934;SDS011;39898;41.762;26.200;2024-01-11T11:51:21;39.67;;;17.92;;
49934;SDS011;39898;41.762;26.200;2024-01-11T11:53:53;87.30;;;35.85;;
49934;SDS011;39898;41.762;26.200;2024-01-11T11:56:21;46.72;;;18.15;;
49934;SDS011;39898;41.762;26.200;2024-01-11T12:01:16;45.13;;;21.75;;
49934;SDS011;39898;41.762;26.200;2024-01-11T12:03:44;51.92;;;21.08;;
49934;SDS011;39898;41.762;26.200;2024-01-11T12:06:17;35.40;;;16.70;;
49934;SDS011;39898;41.762;26.200;2024-01-11T12:11:18;31.65;;;16.58;;
49934;SDS011;39898;41.762;26.200;2024-01-11T12:13:45;26.02;;;13.65;;
49934;SDS011;39898;41.762;26.200;2024-01-11T12:16:12;23.15;;;11.13;;
49934;SDS011;39898;41.762;26.200;2024-01-11T12:18:39;22.40;;;8.95;;
49934;SDS011;39898;41.762;26.200;2024-01-11T12:21:06;20.73;;;8.00;;
49934;SDS011;39898;41.762;26.200;2024-01-11T12:23:34;26.77;;;12.38;;
49934;SDS011;39898;41.762;26.200;2024-01-11T12:26:01;18.77;;;9.00;;
49934;SDS011;39898;41.762;26.200;2024-01-11T12:28:30;20.70;;;9.98;;
49934;SDS011;39898;41.762;26.200;2024-01-11T12:30:58;17.52;;;8.75;;
49934;SDS011;39898;41.762;26.200;2024-01-11T12:33:25;18.25;;;8.60;;
49934;SDS011;39898;41.762;26.200;2024-01-11T12:35:52;17.38;;;8.00;;
49934;SDS011;39898;41.762;26.200;2024-01-11T12:38:19;51.20;;;20.02;;
49934;SDS011;39898;41.762;26.200;2024-01-11T12:40:46;39.60;;;17.38;;
49934;SDS011;39898;41.762;26.200;2024-01-11T12:43:13;15.77;;;7.40;;
49934;SDS011;39898;41.762;26.200;2024-01-11T12:45:40;10.32;;;4.88;;
49934;SDS011;39898;41.762;26.200;2024-01-11T12:48:07;16.10;;;7.53;;
49934;SDS011;39898;41.762;26.200;2024-01-11T12:50:34;14.03;;;7.87;;
49934;SDS011;39898;41.762;26.200;2024-01-11T12:53:08;18.88;;;9.30;;
49934;SDS011;39898;41.762;26.200;2024-01-11T12:55:35;25.88;;;12.02;;
49934;SDS011;39898;41.762;26.200;2024-01-11T12:58:20;16.50;;;8.27;;
49934;SDS011;39898;41.762;26.200;2024-01-11T13:00:49;43.30;;;19.00;;
49934;SDS011;39898;41.762;26.200;2024-01-11T13:03:16;17.92;;;8.07;;
49934;SDS011;39898;41.762;26.200;2024-01-11T13:05:43;29.27;;;12.95;;
49934;SDS011;39898;41.762;26.200;2024-01-11T13:08:10;14.63;;;8.40;;
49934;SDS011;39898;41.762;26.200;2024-01-11T13:10:37;11.35;;;6.47;;
49934;SDS011;39898;41.762;26.200;2024-01-11T13:13:04;15.95;;;7.95;;
49934;SDS011;39898;41.762;26.200;2024-01-11T13:15:35;14.88;;;7.25;;
49934;SDS011;39898;41.762;26.200;2024-01-11T13:18:05;23.08;;;9.82;;
49934;SDS011;39898;41.762;26.200;2024-01-11T13:20:32;16.27;;;6.95;;
49934;SDS011;39898;41.762;26.200;2024-01-11T13:23:12;13.77;;;6.38;;
49934;SDS011;39898;41.762;26.200;2024-01-11T13:25:42;16.38;;;7.32;;
49934;SDS011;39898;41.762;26.200;2024-01-11T13:28:09;26.27;;;9.88;;
49934;SDS011;39898;41.762;26.200;2024-01-11T13:30:40;16.20;;;7.30;;
49934;SDS011;39898;41.762;26.200;2024-01-11T13:33:08;19.88;;;6.65;;
49934;SDS011;39898;41.762;26.200;2024-01-11T13:35:35;15.35;;;7.07;;
49934;SDS011;39898;41.762;26.200;2024-01-11T13:38:03;15.27;;;7.25;;
49934;SDS011;39898;41.762;26.200;2024-01-11T13:40:30;11.70;;;6.60;;
49934;SDS011;39898;41.762;26.200;2024-01-11T13:42:57;17.63;;;9.40;;
49934;SDS011;39898;41.762;26.200;2024-01-11T13:45:24;25.23;;;12.55;;
49934;SDS011;39898;41.762;26.200;2024-01-11T13:47:52;19.05;;;9.00;;
49934;SDS011;39898;41.762;26.200;2024-01-11T13:50:20;18.00;;;10.18;;
49934;SDS011;39898;41.762;26.200;2024-01-11T13:52:50;25.90;;;11.20;;
49934;SDS011;39898;41.762;26.200;2024-01-11T13:55:17;27.30;;;13.95;;
49934;SDS011;39898;41.762;26.200;2024-01-11T13:57:49;89.13;;;35.97;;
49934;SDS011;39898;41.762;26.200;2024-01-11T14:00:16;59.67;;;25.27;;
49934;SDS011;39898;41.762;26.200;2024-01-11T14:02:45;25.05;;;11.18;;
49934;SDS011;39898;41.762;26.200;2024-01-11T14:05:12;19.10;;;10.63;;
49934;SDS011;39898;41.762;26.200;2024-01-11T14:07:40;30.02;;;13.38;;
49934;SDS011;39898;41.762;26.200;2024-01-11T14:10:07;18.38;;;8.43;;
49934;SDS011;39898;41.762;26.200;2024-01-11T14:12:38;24.13;;;10.80;;
49934;SDS011;39898;41.762;26.200;2024-01-11T14:15:04;33.90;;;12.55;;
49934;SDS011;39898;41.762;26.200;2024-01-11T14:20:00;61.33;;;19.80;;
49934;SDS011;39898;41.762;26.200;2024-01-11T14:22:28;146.70;;;44.25;;
49934;SDS011;39898;41.762;26.200;2024-01-11T14:24:54;85.38;;;27.23;;